createdAt,value
2023-03-11T00:00:39.754Z,100.00
2023-03-11T00:03:08.976Z,100.00
2023-03-11T00:05:40.626Z,100.00
2023-03-11T00:08:09.292Z,100.00
2023-03-11T00:10:40.258Z,100.00
2023-03-11T00:13:08.675Z,100.00
2023-03-11T00:15:36.084Z,100.00
2023-03-11T00:18:03.444Z,100.00
2023-03-11T00:20:36.248Z,100.00
2023-03-11T00:23:04.875Z,100.00
2023-03-11T00:25:32.962Z,100.00
2023-03-11T00:28:00.032Z,100.00
2023-03-11T00:30:27.789Z,100.00
2023-03-11T00:32:56.876Z,100.00
2023-03-11T00:35:26.961Z,100.00
2023-03-11T00:37:56.307Z,100.00
2023-03-11T00:40:24.360Z,100.00
2023-03-11T00:42:51.022Z,100.00
2023-03-11T00:45:17.574Z,100.00
2023-03-11T00:47:44.407Z,100.00
2023-03-11T00:50:17.917Z,100.00
2023-03-11T00:52:46.174Z,100.00
2023-03-11T00:55:16.015Z,100.00
2023-03-11T00:57:43.428Z,100.00
2023-03-11T01:00:17.048Z,100.00
2023-03-11T01:02:43.877Z,100.00
2023-03-11T01:05:10.942Z,100.00
2023-03-11T01:07:37.586Z,100.00
2023-03-11T01:10:06.359Z,100.00
2023-03-11T01:12:32.926Z,100.00
2023-03-11T01:14:59.483Z,100.00
2023-03-11T01:17:25.998Z,100.00
2023-03-11T01:19:52.523Z,100.00
2023-03-11T01:22:19.020Z,100.00
2023-03-11T01:24:45.499Z,100.00
2023-03-11T01:27:12.023Z,100.00
2023-03-11T01:29:38.593Z,100.00
2023-03-11T01:32:05.565Z,100.00
2023-03-11T01:34:33.468Z,100.00
2023-03-11T01:37:00.132Z,100.00
2023-03-11T01:39:26.665Z,100.00
2023-03-11T01:41:53.450Z,100.00
2023-03-11T01:44:19.981Z,100.00
2023-03-11T01:46:52.676Z,100.00
2023-03-11T01:49:21.735Z,100.00
2023-03-11T01:51:52.002Z,100.00
2023-03-11T01:54:28.681Z,100.00
2023-03-11T01:56:56.009Z,100.00
2023-03-11T01:59:30.275Z,100.00
2023-03-11T02:02:54.452Z,100.00
2023-03-11T02:05:25.632Z,100.00
2023-03-11T02:07:54.995Z,100.00
2023-03-11T02:10:22.186Z,100.00
2023-03-11T02:12:50.676Z,100.00
2023-03-11T02:15:17.911Z,100.00
2023-03-11T02:17:44.864Z,100.00
2023-03-11T02:20:18.441Z,100.00
2023-03-11T02:22:45.092Z,100.00
2023-03-11T02:25:50.460Z,100.00
2023-03-11T02:28:19.814Z,100.00
2023-03-11T02:30:47.808Z,100.00
2023-03-11T02:33:15.504Z,100.00
2023-03-11T02:35:42.068Z,100.00
2023-03-11T02:38:08.682Z,100.00
2023-03-11T02:40:48.779Z,100.00
2023-03-11T02:43:19.568Z,100.00
2023-03-11T02:45:48.116Z,100.00
2023-03-11T02:48:16.610Z,100.00
2023-03-11T02:50:44.549Z,100.00
2023-03-11T02:53:11.134Z,100.00
2023-03-11T02:55:37.853Z,100.00
2023-03-11T02:58:04.428Z,100.00
2023-03-11T03:00:31.238Z,100.00
2023-03-11T03:02:57.891Z,100.00
2023-03-11T03:05:24.408Z,100.00
2023-03-11T03:07:51.389Z,100.00
2023-03-11T03:10:19.234Z,100.00
2023-03-11T03:12:45.723Z,100.00
2023-03-11T03:15:12.826Z,100.00
2023-03-11T03:17:39.470Z,100.00
2023-03-11T03:20:11.330Z,100.00
2023-03-11T03:22:38.997Z,100.00
2023-03-11T03:25:06.092Z,100.00
2023-03-11T03:27:34.392Z,100.00
2023-03-11T03:30:00.963Z,100.00
2023-03-11T03:32:27.825Z,100.00
2023-03-11T03:34:59.007Z,100.00
2023-03-11T03:37:27.482Z,100.00
2023-03-11T03:39:55.077Z,100.00
2023-03-11T03:42:22.128Z,100.00
2023-03-11T03:44:48.657Z,100.00
2023-03-11T03:47:15.196Z,100.00
2023-03-11T03:49:41.736Z,100.00
2023-03-11T03:52:08.789Z,100.00
2023-03-11T03:54:35.267Z,100.00
2023-03-11T03:57:02.240Z,100.00
2023-03-11T03:59:28.951Z,100.00
2023-03-11T04:01:55.673Z,100.00
2023-03-11T04:04:22.592Z,100.00
2023-03-11T04:06:49.117Z,100.00
2023-03-11T04:09:15.691Z,100.00
2023-03-11T04:11:42.186Z,100.00
2023-03-11T04:14:08.628Z,100.00
2023-03-11T04:16:35.191Z,100.00
2023-03-11T04:19:01.770Z,100.00
2023-03-11T04:21:28.468Z,100.00
2023-03-11T04:23:54.977Z,100.00
2023-03-11T04:26:21.481Z,100.00
2023-03-11T04:28:47.942Z,100.00
2023-03-11T04:31:14.522Z,100.00
2023-03-11T04:33:41.021Z,100.00
2023-03-11T04:36:08.797Z,100.00
2023-03-11T04:38:35.882Z,100.00
2023-03-11T04:41:06.577Z,100.00
2023-03-11T04:43:33.849Z,100.00
2023-03-11T04:46:00.402Z,100.00
2023-03-11T04:48:27.616Z,100.00
2023-03-11T04:50:55.564Z,100.00
2023-03-11T04:53:22.437Z,100.00
2023-03-11T04:55:49.062Z,100.00
2023-03-11T04:58:15.637Z,100.00
2023-03-11T05:00:42.143Z,100.00
2023-03-11T05:03:08.679Z,100.00
2023-03-11T05:05:35.491Z,100.00
2023-03-11T05:08:02.080Z,100.00
2023-03-11T05:10:30.172Z,100.00
2023-03-11T05:12:58.427Z,100.00
2023-03-11T05:15:25.134Z,100.00
2023-03-11T05:17:51.609Z,100.00
2023-03-11T05:20:18.584Z,100.00
2023-03-11T05:22:45.037Z,100.00
2023-03-11T05:25:11.623Z,100.00
2023-03-11T05:27:38.098Z,100.00
2023-03-11T05:30:05.182Z,100.00
2023-03-11T05:32:31.780Z,100.00
2023-03-11T05:34:58.263Z,100.00
2023-03-11T05:37:24.691Z,100.00
2023-03-11T05:39:52.564Z,100.00
2023-03-11T05:42:21.256Z,100.00
2023-03-11T05:44:48.037Z,100.00
2023-03-11T05:47:16.081Z,100.00
2023-03-11T05:49:42.740Z,100.00
2023-03-11T05:52:09.588Z,100.00
2023-03-11T05:54:36.076Z,100.00
2023-03-11T05:57:02.702Z,100.00
2023-03-11T05:59:29.138Z,100.00
2023-03-11T06:01:55.788Z,100.00
2023-03-11T06:04:22.465Z,100.00
2023-03-11T06:06:49.058Z,100.00
2023-03-11T06:09:16.255Z,100.00
2023-03-11T06:11:42.883Z,100.00
2023-03-11T06:14:14.139Z,100.00
2023-03-11T06:16:42.096Z,100.00
2023-03-11T06:19:09.044Z,100.00
2023-03-11T06:21:35.698Z,100.00
2023-03-11T06:24:02.302Z,100.00
2023-03-11T06:26:28.794Z,100.00
2023-03-11T06:28:55.476Z,100.00
2023-03-11T06:31:25.305Z,100.00
2023-03-11T06:33:53.676Z,100.00
2023-03-11T06:36:20.620Z,100.00
2023-03-11T06:38:48.459Z,100.00
2023-03-11T06:41:14.994Z,100.00
2023-03-11T06:43:41.635Z,100.00
2023-03-11T06:46:10.859Z,100.00
2023-03-11T06:48:37.604Z,100.00
2023-03-11T06:51:04.415Z,100.00
2023-03-11T06:53:31.023Z,100.00
2023-03-11T06:56:09.987Z,100.00
2023-03-11T06:58:38.892Z,100.00
2023-03-11T07:01:08.690Z,100.00
2023-03-11T07:03:35.320Z,100.00
2023-03-11T07:06:01.998Z,100.00
2023-03-11T07:08:28.792Z,100.00
2023-03-11T07:11:08.172Z,100.00
2023-03-11T07:13:36.181Z,100.00
2023-03-11T07:16:02.649Z,100.00
2023-03-11T07:18:29.576Z,100.00
2023-03-11T07:20:56.185Z,100.00
2023-03-11T07:23:23.908Z,100.00
2023-03-11T07:25:51.859Z,100.00
2023-03-11T07:28:18.972Z,100.00
2023-03-11T07:30:46.589Z,100.00
2023-03-11T07:33:14.045Z,100.00
2023-03-11T07:35:40.605Z,100.00
2023-03-11T07:38:07.133Z,100.00
2023-03-11T07:40:33.768Z,100.00
2023-03-11T07:43:00.467Z,100.00
2023-03-11T07:45:26.955Z,100.00
2023-03-11T07:47:53.439Z,100.00
2023-03-11T07:50:22.257Z,100.00
2023-03-11T07:52:48.799Z,100.00
2023-03-11T07:55:15.620Z,100.00
2023-03-11T07:57:42.791Z,100.00
2023-03-11T08:00:10.639Z,100.00
2023-03-11T08:02:37.198Z,100.00
2023-03-11T08:05:03.947Z,100.00
2023-03-11T08:07:32.420Z,100.00
2023-03-11T08:09:59.154Z,100.00
2023-03-11T08:12:25.613Z,100.00
2023-03-11T08:14:52.073Z,100.00
2023-03-11T08:17:18.571Z,100.00
2023-03-11T08:19:44.991Z,100.00
2023-03-11T08:22:11.529Z,100.00
2023-03-11T08:24:38.078Z,100.00
2023-03-11T08:27:04.613Z,100.00
2023-03-11T08:29:31.116Z,100.00
2023-03-11T08:31:57.647Z,100.00
2023-03-11T10:26:13.235Z,100.00
2023-03-11T10:28:46.982Z,100.00
2023-03-11T10:31:19.039Z,100.00
2023-03-11T10:34:37.261Z,100.00
2023-03-11T10:37:50.161Z,100.00
2023-03-11T10:40:32.997Z,100.00
2023-03-11T10:43:04.397Z,100.00
2023-03-11T10:45:38.008Z,100.00
2023-03-11T10:48:10.542Z,100.00
2023-03-11T10:50:38.282Z,100.00
2023-03-11T10:53:16.330Z,100.00
2023-03-11T10:55:51.966Z,100.00
2023-03-11T10:58:24.657Z,100.00
2023-03-11T11:01:16.105Z,100.00
2023-03-11T11:03:45.244Z,100.00
2023-03-11T11:06:26.204Z,100.00
2023-03-11T11:09:16.183Z,100.00
2023-03-11T11:11:59.827Z,100.00
2023-03-11T11:14:26.504Z,98.43
2023-03-11T11:16:53.197Z,97.01
2023-03-11T11:19:20.224Z,93.81
2023-03-11T11:21:52.360Z,89.25
2023-03-11T11:24:27.587Z,94.90
2023-03-11T11:27:27.745Z,97.24
2023-03-11T11:30:09.505Z,96.22
2023-03-11T11:32:37.309Z,92.32
2023-03-11T11:35:07.329Z,91.76
2023-03-11T11:37:37.520Z,87.90
2023-03-11T11:40:16.742Z,91.45
2023-03-11T11:42:51.780Z,89.16
2023-03-11T11:45:35.921Z,89.55
2023-03-11T11:48:20.993Z,88.97
2023-03-11T11:51:00.216Z,87.49
2023-03-11T11:53:49.836Z,88.30
2023-03-11T11:56:16.387Z,84.65
2023-03-11T11:58:42.864Z,82.31
2023-03-11T12:01:23.153Z,82.07
2023-03-11T12:04:38.271Z,83.17
2023-03-11T12:07:07.862Z,80.20
2023-03-11T12:09:43.066Z,80.71
2023-03-11T12:12:48.302Z,80.77
2023-03-11T12:15:21.432Z,78.60
2023-03-11T12:17:52.418Z,76.95
2023-03-11T12:20:28.265Z,77.35
2023-03-11T12:23:09.778Z,77.61
2023-03-11T12:26:04.810Z,79.90
2023-03-11T12:28:51.600Z,79.49
2023-03-11T12:31:19.200Z,76.25
2023-03-11T12:33:47.737Z,76.39
2023-03-11T12:36:42.348Z,79.38
2023-03-11T12:39:24.964Z,77.37
2023-03-11T12:42:25.160Z,77.46
2023-03-11T12:44:51.895Z,72.68
2023-03-11T12:47:21.405Z,73.73
2023-03-11T12:49:55.776Z,74.06
2023-03-11T12:52:26.550Z,71.35
2023-03-11T12:54:59.090Z,71.27
2023-03-11T12:57:34.197Z,71.97
2023-03-11T13:00:44.748Z,73.75
2023-03-11T13:03:46.034Z,73.80
2023-03-11T13:06:30.756Z,70.72
2023-03-11T13:08:58.881Z,67.52
2023-03-11T13:11:31.482Z,69.97
2023-03-11T13:14:34.137Z,70.67
2023-03-11T13:17:27.241Z,70.81
2023-03-11T13:19:56.464Z,66.88
2023-03-11T13:22:52.474Z,68.04
2023-03-11T13:25:27.859Z,66.78
2023-03-11T13:28:03.760Z,65.19
2023-03-11T13:30:38.951Z,63.61
2023-03-11T13:33:17.672Z,64.33
2023-03-11T13:36:09.186Z,61.73
2023-03-11T13:39:17.036Z,62.52
2023-03-11T13:41:45.306Z,60.44
2023-03-11T13:44:27.588Z,60.83
2023-03-11T13:47:01.757Z,61.34
2023-03-11T13:49:43.080Z,61.73
2023-03-11T13:52:15.670Z,60.48
2023-03-11T13:54:47.536Z,58.94
2023-03-11T13:57:35.373Z,61.80
2023-03-11T14:00:16.919Z,59.01
2023-03-11T14:03:05.120Z,60.11
2023-03-11T14:05:33.378Z,59.17
2023-03-11T14:08:12.164Z,59.50
2023-03-11T14:10:38.959Z,57.96
2023-03-11T14:13:15.206Z,58.96
2023-03-11T14:15:58.537Z,60.05
2023-03-11T14:18:26.430Z,58.14
2023-03-11T14:20:53.085Z,57.94
2023-03-11T14:23:20.822Z,57.15
2023-03-11T14:25:47.468Z,57.21
2023-03-11T14:28:20.427Z,57.17
2023-03-11T14:30:58.100Z,56.50
2023-03-11T14:33:25.672Z,55.42
2023-03-11T14:36:14.138Z,56.61
2023-03-11T14:38:44.259Z,55.95
2023-03-11T14:41:15.025Z,56.84
2023-03-11T14:43:46.418Z,56.20
2023-03-11T14:46:21.359Z,56.98
2023-03-11T14:48:49.447Z,57.22
2023-03-11T14:51:31.319Z,58.30
2023-03-11T14:54:24.417Z,58.70
2023-03-11T14:57:05.975Z,59.11
2023-03-11T14:59:35.147Z,57.27
2023-03-11T15:02:27.777Z,56.76
2023-03-11T15:04:58.255Z,56.96
2023-03-11T15:07:25.827Z,55.38
2023-03-11T15:09:52.475Z,56.11
2023-03-11T15:12:33.935Z,55.68
2023-03-11T15:15:00.587Z,54.86
2023-03-11T15:17:42.773Z,55.62
2023-03-11T15:20:43.177Z,56.96
2023-03-11T15:23:21.644Z,56.70
2023-03-11T15:25:49.983Z,55.12
2023-03-11T15:28:29.376Z,55.63
2023-03-11T15:31:31.067Z,55.51
2023-03-11T15:34:16.331Z,56.20
2023-03-11T15:36:48.910Z,55.19
2023-03-11T15:39:25.446Z,55.55
2023-03-11T15:42:07.099Z,54.97
2023-03-11T15:45:09.224Z,56.55
2023-03-11T15:47:36.170Z,53.81
2023-03-11T15:50:26.339Z,53.42
2023-03-11T15:52:58.090Z,54.31
2023-03-11T15:55:27.570Z,54.48
2023-03-11T15:58:03.392Z,54.25
2023-03-11T16:00:29.996Z,55.05
2023-03-11T16:02:56.534Z,52.87
2023-03-11T16:05:25.005Z,51.14
2023-03-11T16:07:51.764Z,51.89
2023-03-11T16:10:21.241Z,53.57
2023-03-11T16:12:48.323Z,51.87
2023-03-11T16:15:25.070Z,52.69
2023-03-11T16:17:53.113Z,52.86
2023-03-11T16:20:21.533Z,53.76
2023-03-11T16:22:50.536Z,54.74
2023-03-11T16:25:30.695Z,55.85
2023-03-11T16:27:57.725Z,56.25
2023-03-11T16:30:28.421Z,55.99
2023-03-11T16:32:55.130Z,55.51
2023-03-11T16:35:21.745Z,56.59
2023-03-11T16:37:48.795Z,56.75
2023-03-11T16:40:19.526Z,56.84
2023-03-11T16:42:48.501Z,57.48
2023-03-11T16:45:16.883Z,57.40
2023-03-11T16:47:43.343Z,56.60
2023-03-11T16:50:10.989Z,56.62
2023-03-11T16:52:37.581Z,56.73
2023-03-11T16:55:04.664Z,57.00
2023-03-11T16:57:31.454Z,59.44
2023-03-11T16:59:58.349Z,59.25
2023-03-11T17:02:25.341Z,60.41
2023-03-11T17:04:51.872Z,60.17
2023-03-11T17:07:18.623Z,60.99
2023-03-11T17:09:45.160Z,61.24
2023-03-11T17:12:15.851Z,61.96
2023-03-11T17:14:42.571Z,60.46
2023-03-11T17:17:09.297Z,62.19
2023-03-11T17:19:35.841Z,62.07
2023-03-11T17:22:02.444Z,62.67
2023-03-11T17:24:29.656Z,62.59
2023-03-11T17:26:56.427Z,64.90
2023-03-11T17:29:22.984Z,65.71
2023-03-11T17:31:49.585Z,67.40
2023-03-11T17:34:16.150Z,68.65
2023-03-11T17:36:43.082Z,69.75
2023-03-11T17:39:09.609Z,70.65
2023-03-11T17:41:36.153Z,71.63
2023-03-11T17:44:02.587Z,72.80
2023-03-11T17:46:29.486Z,73.57
2023-03-11T17:48:55.989Z,74.81
2023-03-11T17:51:25.774Z,75.57
2023-03-11T17:53:54.895Z,76.88
2023-03-11T17:56:22.219Z,78.17
2023-03-11T17:58:49.830Z,78.69
2023-03-11T18:01:19.367Z,79.46
2023-03-11T18:03:46.610Z,79.98
2023-03-11T18:06:13.700Z,80.15
2023-03-11T18:08:40.591Z,80.79
2023-03-11T18:11:10.020Z,81.41
2023-03-11T18:13:38.044Z,80.60
2023-03-11T18:16:07.657Z,81.87
2023-03-11T18:18:35.919Z,82.56
2023-03-11T18:21:13.608Z,82.52
2023-03-11T18:23:40.676Z,82.82
2023-03-11T18:26:08.544Z,82.81
2023-03-11T18:28:36.082Z,82.24
2023-03-11T18:31:10.719Z,81.57
2023-03-11T18:33:38.127Z,81.31
2023-03-11T18:36:36.397Z,82.02
2023-03-11T18:39:04.706Z,82.57
2023-03-11T18:41:34.600Z,82.70
2023-03-11T18:44:01.923Z,83.46
2023-03-11T18:46:33.471Z,83.52
2023-03-11T18:49:02.659Z,84.12
2023-03-11T18:51:31.561Z,84.75
2023-03-11T18:53:59.278Z,84.86
2023-03-11T18:56:26.214Z,85.06
2023-03-11T18:58:52.829Z,85.18
2023-03-11T19:01:20.808Z,85.44
2023-03-11T19:03:52.668Z,86.08
2023-03-11T19:06:20.122Z,85.62
2023-03-11T19:08:46.748Z,86.34
2023-03-11T19:11:23.775Z,86.39
2023-03-11T19:13:50.789Z,86.11
2023-03-11T19:16:21.546Z,85.62
2023-03-11T19:18:48.385Z,86.13
2023-03-11T19:21:16.317Z,86.39
2023-03-11T19:23:43.376Z,86.67
2023-03-11T19:26:10.166Z,87.24
2023-03-11T19:28:37.076Z,87.14
2023-03-11T19:31:04.355Z,87.65
2023-03-11T19:33:31.195Z,88.29
2023-03-11T19:36:00.686Z,89.14
2023-03-11T19:38:28.551Z,88.95
2023-03-11T19:41:01.719Z,89.71
2023-03-11T19:43:28.569Z,89.95
2023-03-11T19:45:55.151Z,90.06
2023-03-11T19:48:21.657Z,90.03
2023-03-11T19:50:50.615Z,90.03
2023-03-11T19:53:18.025Z,90.03
2023-03-11T19:55:50.763Z,90.68
2023-03-11T19:58:17.653Z,90.47
2023-03-11T20:00:44.493Z,90.70
2023-03-11T20:03:12.288Z,90.99
2023-03-11T20:05:41.275Z,90.83
2023-03-11T20:08:08.476Z,91.22
2023-03-11T20:10:38.685Z,91.14
2023-03-11T20:13:05.322Z,91.22
2023-03-11T20:15:31.907Z,91.10
2023-03-11T20:17:58.601Z,91.10
2023-03-11T20:20:25.654Z,91.13
2023-03-11T20:22:52.218Z,91.80
2023-03-11T20:25:18.885Z,91.93
2023-03-11T20:27:45.410Z,91.96
2023-03-11T20:30:12.817Z,92.23
2023-03-11T20:32:39.521Z,92.29
2023-03-11T20:35:06.790Z,92.51
2023-03-11T20:37:33.366Z,92.86
2023-03-11T20:39:59.857Z,92.89
2023-03-11T20:42:26.398Z,92.60
2023-03-11T20:44:54.289Z,92.80
2023-03-11T20:47:21.013Z,92.82
2023-03-11T20:49:47.532Z,93.16
2023-03-11T20:52:14.035Z,93.34
2023-03-11T20:54:40.775Z,93.34
2023-03-11T20:57:07.910Z,93.26
2023-03-11T20:59:34.563Z,93.78
2023-03-11T21:02:01.584Z,94.02
2023-03-11T21:04:28.189Z,94.00
2023-03-11T21:06:55.510Z,94.16
2023-03-11T21:09:22.140Z,94.06
2023-03-11T21:11:48.777Z,94.18
2023-03-11T21:14:17.541Z,94.20
2023-03-11T21:16:45.444Z,94.59
2023-03-11T21:19:13.626Z,94.61
2023-03-11T21:21:40.888Z,94.09
2023-03-11T21:24:07.721Z,94.40
2023-03-11T21:26:34.580Z,94.53
2023-03-11T21:29:01.207Z,94.65
2023-03-11T21:31:29.439Z,95.04
2023-03-11T21:33:57.933Z,95.07
2023-03-11T21:36:24.633Z,94.72
2023-03-11T21:38:51.672Z,94.66
2023-03-11T21:41:26.015Z,94.85
2023-03-11T21:43:54.298Z,94.63
2023-03-11T21:46:24.383Z,94.82
2023-03-11T21:48:51.275Z,95.02
2023-03-11T21:51:19.226Z,94.82
2023-03-11T21:53:46.206Z,95.19
2023-03-11T21:56:13.708Z,95.28
2023-03-11T21:58:40.831Z,95.10
2023-03-11T22:01:08.355Z,94.99
2023-03-11T22:03:36.255Z,95.23
2023-03-11T22:06:09.054Z,95.32
2023-03-11T22:08:36.256Z,95.08
2023-03-11T22:11:06.697Z,95.00
2023-03-11T22:13:33.307Z,95.26
2023-03-11T22:16:03.682Z,95.80
2023-03-11T22:18:30.313Z,95.39
2023-03-11T22:21:00.266Z,95.75
2023-03-11T22:23:27.428Z,95.69
2023-03-11T22:25:54.218Z,95.76
2023-03-11T22:28:20.719Z,95.84
2023-03-11T22:30:47.224Z,96.01
2023-03-11T22:33:13.901Z,96.09
2023-03-11T22:35:40.548Z,96.40
2023-03-11T22:38:07.580Z,96.38
2023-03-11T22:40:35.430Z,96.58
2023-03-11T22:43:02.096Z,96.48
2023-03-11T22:45:28.588Z,96.98
2023-03-11T22:47:55.109Z,96.98
2023-03-11T22:50:21.938Z,96.90
2023-03-11T22:52:48.420Z,96.99
2023-03-11T22:55:15.111Z,97.10
2023-03-11T22:57:41.651Z,97.25
2023-03-11T23:00:20.858Z,97.83
2023-03-11T23:02:49.231Z,97.46
2023-03-11T23:05:15.975Z,97.83
2023-03-11T23:07:42.860Z,97.55
2023-03-11T23:10:12.663Z,97.88
2023-03-11T23:12:39.706Z,98.09
2023-03-11T23:15:09.635Z,98.01
2023-03-11T23:17:36.350Z,98.20
2023-03-11T23:20:05.486Z,98.37
2023-03-11T23:22:36.225Z,97.72
2023-03-11T23:25:04.964Z,98.18
2023-03-11T23:27:31.871Z,97.90
2023-03-11T23:29:58.694Z,97.96
2023-03-11T23:32:25.319Z,98.21
2023-03-11T23:34:51.854Z,98.28
2023-03-11T23:37:18.336Z,98.38
2023-03-11T23:39:44.791Z,97.99
2023-03-11T23:42:24.625Z,98.37
2023-03-11T23:44:52.543Z,98.41
2023-03-11T23:47:19.040Z,98.42
2023-03-11T23:49:45.690Z,98.21
2023-03-11T23:52:12.238Z,97.95
2023-03-11T23:54:38.786Z,98.45
2023-03-11T23:57:05.472Z,98.25
2023-03-11T23:59:32.012Z,98.37
